SKW5704 KLAX-KSBP
Flight info
| Callsign | SKW5704 |
|---|---|
| Flight time | 0h 28m |
| Altitude | 22000 |
| Route | VTU8 RZS MQO |
| Aircraft | E75L/M-SDE3GILORVW/S |
Departure
| Time | 2026-04-20 21:59 |
|---|---|
| Airport | Los Angeles International Airport (KLAX) |
Arrival
| Time | 2026-04-20 22:27 |
|---|---|
| Airport | San Luis County Regional Airport (KSBP) |
| Time | Latitude | Longitude | Altitude | Speed | Heading |
|---|---|---|---|---|---|
| 2026-04-20 21:35 | 33.94278 | -118.39801 | 90 ft | 0 kts | 65° |
| 2026-04-20 21:45 | 33.94273 | -118.39813 | 90 ft | 2 kts | 66° |
| 2026-04-20 21:46 | 33.94267 | -118.39832 | 92 ft | 2 kts | 72° |
| 2026-04-20 21:46 | 33.94267 | -118.39850 | 90 ft | 2 kts | 155° |
| 2026-04-20 21:46 | 33.94271 | -118.39851 | 90 ft | 0 kts | 171° |
| 2026-04-20 21:51 | 33.94269 | -118.39851 | 90 ft | 1 kts | 172° |
| 2026-04-20 21:51 | 33.94254 | -118.39849 | 92 ft | 3 kts | 173° |
| 2026-04-20 21:52 | 33.94222 | -118.39844 | 92 ft | 6 kts | 173° |
| 2026-04-20 21:52 | 33.94177 | -118.39835 | 92 ft | 7 kts | 172° |
| 2026-04-20 21:52 | 33.94119 | -118.39829 | 92 ft | 9 kts | 176° |
| 2026-04-20 21:52 | 33.94099 | -118.39828 | 91 ft | 1 kts | 178° |
| 2026-04-20 21:53 | 33.94085 | -118.39827 | 92 ft | 0 kts | 179° |
| 2026-04-20 21:53 | 33.94054 | -118.39826 | 91 ft | 9 kts | 176° |
| 2026-04-20 21:54 | 33.93984 | -118.39815 | 93 ft | 11 kts | 171° |
| 2026-04-20 21:54 | 33.93918 | -118.39774 | 94 ft | 11 kts | 125° |
| 2026-04-20 21:54 | 33.93910 | -118.39679 | 93 ft | 13 kts | 82° |
| 2026-04-20 21:54 | 33.93926 | -118.39565 | 94 ft | 15 kts | 75° |
| 2026-04-20 21:55 | 33.93939 | -118.39434 | 94 ft | 17 kts | 87° |
| 2026-04-20 21:55 | 33.93953 | -118.39282 | 91 ft | 19 kts | 83° |
| 2026-04-20 21:55 | 33.93970 | -118.39113 | 91 ft | 21 kts | 87° |
| 2026-04-20 21:55 | 33.93985 | -118.38931 | 93 ft | 23 kts | 82° |
| 2026-04-20 21:56 | 33.94008 | -118.38734 | 92 ft | 25 kts | 81° |
| 2026-04-20 21:56 | 33.94028 | -118.38540 | 94 ft | 23 kts | 84° |
| 2026-04-20 21:56 | 33.94047 | -118.38361 | 93 ft | 19 kts | 82° |
| 2026-04-20 21:56 | 33.94066 | -118.38197 | 92 ft | 21 kts | 82° |
| 2026-04-20 21:57 | 33.94077 | -118.38060 | 91 ft | 8 kts | 88° |
| 2026-04-20 21:57 | 33.94075 | -118.38040 | 95 ft | 0 kts | 104° |
| 2026-04-20 21:58 | 33.94071 | -118.38027 | 97 ft | 6 kts | 116° |
| 2026-04-20 21:58 | 33.94015 | -118.37993 | 92 ft | 11 kts | 180° |
| 2026-04-20 21:58 | 33.93977 | -118.38072 | 91 ft | 25 kts | 262° |
| 2026-04-20 21:58 | 33.93924 | -118.38575 | 98 ft | 97 kts | 264° |
| 2026-04-20 21:59 | 33.93815 | -118.39633 | 212 ft | 148 kts | 262° |
| 2026-04-20 21:59 | 33.93646 | -118.40910 | 1022 ft | 156 kts | 258° |
| 2026-04-20 21:59 | 33.93456 | -118.42209 | 2119 ft | 165 kts | 259° |
| 2026-04-20 21:59 | 33.93264 | -118.43625 | 3132 ft | 177 kts | 260° |
| 2026-04-20 22:00 | 33.93084 | -118.45132 | 4116 ft | 189 kts | 261° |
| 2026-04-20 22:00 | 33.92913 | -118.46836 | 4782 ft | 232 kts | 260° |
| 2026-04-20 22:00 | 33.92713 | -118.49007 | 4935 ft | 276 kts | 262° |
| 2026-04-20 22:00 | 33.92515 | -118.51279 | 4979 ft | 270 kts | 262° |
| 2026-04-20 22:01 | 33.92324 | -118.53538 | 4990 ft | 270 kts | 262° |
| 2026-04-20 22:01 | 33.92125 | -118.55806 | 5282 ft | 273 kts | 262° |
| 2026-04-20 22:01 | 33.92121 | -118.58072 | 6302 ft | 277 kts | 281° |
| 2026-04-20 22:01 | 33.92918 | -118.60203 | 7152 ft | 284 kts | 298° |
| 2026-04-20 22:02 | 33.93988 | -118.62230 | 7960 ft | 289 kts | 301° |
| 2026-04-20 22:02 | 33.95072 | -118.64257 | 8740 ft | 292 kts | 300° |
| 2026-04-20 22:02 | 33.96154 | -118.66347 | 9507 ft | 296 kts | 298° |
| 2026-04-20 22:02 | 33.97230 | -118.68476 | 10180 ft | 302 kts | 297° |
| 2026-04-20 22:03 | 33.98318 | -118.70707 | 10532 ft | 316 kts | 295° |
| 2026-04-20 22:03 | 33.99301 | -118.73110 | 11055 ft | 321 kts | 292° |
| 2026-04-20 22:03 | 34.00258 | -118.75556 | 11742 ft | 324 kts | 291° |
| 2026-04-20 22:03 | 34.01210 | -118.78031 | 12439 ft | 327 kts | 291° |
| 2026-04-20 22:04 | 34.02168 | -118.80531 | 13120 ft | 329 kts | 290° |
| 2026-04-20 22:04 | 34.03134 | -118.83050 | 13712 ft | 331 kts | 290° |
| 2026-04-20 22:04 | 34.04088 | -118.85539 | 13863 ft | 329 kts | 290° |
| 2026-04-20 22:04 | 34.05054 | -118.88068 | 13934 ft | 334 kts | 290° |
| 2026-04-20 22:05 | 34.06030 | -118.90615 | 13979 ft | 335 kts | 290° |
| 2026-04-20 22:05 | 34.07006 | -118.93163 | 13983 ft | 334 kts | 290° |
| 2026-04-20 22:05 | 34.07979 | -118.95711 | 13977 ft | 334 kts | 290° |
| 2026-04-20 22:05 | 34.08961 | -118.98276 | 14240 ft | 340 kts | 290° |
| 2026-04-20 22:06 | 34.09943 | -119.00845 | 15122 ft | 336 kts | 289° |
| 2026-04-20 22:06 | 34.10944 | -119.03409 | 15856 ft | 340 kts | 291° |
| 2026-04-20 22:06 | 34.12080 | -119.05900 | 16551 ft | 346 kts | 297° |
| 2026-04-20 22:06 | 34.13393 | -119.08351 | 17235 ft | 350 kts | 297° |
| 2026-04-20 22:07 | 34.14741 | -119.10818 | 17884 ft | 354 kts | 297° |
| 2026-04-20 22:07 | 34.16114 | -119.13309 | 18535 ft | 358 kts | 297° |
| 2026-04-20 22:07 | 34.17499 | -119.15826 | 19094 ft | 361 kts | 297° |
| 2026-04-20 22:07 | 34.18896 | -119.18363 | 19700 ft | 364 kts | 297° |
| 2026-04-20 22:08 | 34.19826 | -119.20058 | 20110 ft | 367 kts | 297° |
| 2026-04-20 22:08 | 34.21248 | -119.22642 | 20720 ft | 370 kts | 298° |
| 2026-04-20 22:08 | 34.22680 | -119.25243 | 21333 ft | 374 kts | 297° |
| 2026-04-20 22:08 | 34.24127 | -119.27878 | 21835 ft | 377 kts | 297° |
| 2026-04-20 22:09 | 34.25580 | -119.30526 | 21951 ft | 378 kts | 297° |
| 2026-04-20 22:09 | 34.27038 | -119.33186 | 22028 ft | 380 kts | 297° |
| 2026-04-20 22:09 | 34.28500 | -119.35853 | 22057 ft | 380 kts | 297° |
| 2026-04-20 22:09 | 34.29959 | -119.38519 | 22069 ft | 380 kts | 297° |
| 2026-04-20 22:10 | 34.31419 | -119.41190 | 22078 ft | 380 kts | 297° |
| 2026-04-20 22:10 | 34.32877 | -119.43854 | 22068 ft | 380 kts | 297° |
| 2026-04-20 22:10 | 34.34334 | -119.46524 | 22062 ft | 380 kts | 297° |
| 2026-04-20 22:10 | 34.35790 | -119.49194 | 22067 ft | 380 kts | 297° |
| 2026-04-20 22:11 | 34.37228 | -119.51830 | 22071 ft | 380 kts | 297° |
| 2026-04-20 22:11 | 34.38682 | -119.54497 | 22078 ft | 380 kts | 297° |
| 2026-04-20 22:11 | 34.40140 | -119.57176 | 22065 ft | 380 kts | 297° |
| 2026-04-20 22:11 | 34.41594 | -119.59849 | 22062 ft | 380 kts | 297° |
| 2026-04-20 22:12 | 34.43050 | -119.62526 | 22080 ft | 380 kts | 297° |
| 2026-04-20 22:12 | 34.44503 | -119.65200 | 22079 ft | 380 kts | 297° |
| 2026-04-20 22:12 | 34.45956 | -119.67878 | 22061 ft | 380 kts | 297° |
| 2026-04-20 22:12 | 34.47408 | -119.70555 | 22067 ft | 380 kts | 297° |
| 2026-04-20 22:13 | 34.48873 | -119.73230 | 21964 ft | 383 kts | 300° |
| 2026-04-20 22:13 | 34.50813 | -119.75493 | 21715 ft | 396 kts | 321° |
| 2026-04-20 22:13 | 34.53383 | -119.76925 | 21431 ft | 416 kts | 337° |
| 2026-04-20 22:13 | 34.56152 | -119.77966 | 21222 ft | 417 kts | 339° |
| 2026-04-20 22:14 | 34.58935 | -119.78937 | 20980 ft | 415 kts | 340° |
| 2026-04-20 22:14 | 34.61695 | -119.79906 | 20728 ft | 412 kts | 339° |
| 2026-04-20 22:14 | 34.64434 | -119.80909 | 20501 ft | 410 kts | 338° |
| 2026-04-20 22:14 | 34.67155 | -119.81958 | 20290 ft | 409 kts | 337° |
| 2026-04-20 22:15 | 34.69849 | -119.83055 | 20093 ft | 409 kts | 336° |
| 2026-04-20 22:15 | 34.72490 | -119.84295 | 19748 ft | 402 kts | 326° |
| 2026-04-20 22:15 | 34.74642 | -119.86324 | 19448 ft | 385 kts | 307° |
| 2026-04-20 22:15 | 34.76358 | -119.88808 | 19171 ft | 381 kts | 296° |
| 2026-04-20 22:16 | 34.77364 | -119.91673 | 18944 ft | 361 kts | 279° |
| 2026-04-20 22:16 | 34.78332 | -119.94514 | 18738 ft | 373 kts | 296° |
| 2026-04-20 22:16 | 34.79999 | -119.96992 | 18525 ft | 381 kts | 306° |
| 2026-04-20 22:16 | 34.81797 | -119.99305 | 18322 ft | 381 kts | 307° |
| 2026-04-20 22:17 | 34.83636 | -120.01627 | 17817 ft | 380 kts | 307° |
| 2026-04-20 22:17 | 34.85432 | -120.03890 | 17297 ft | 361 kts | 307° |
| 2026-04-20 22:17 | 34.87121 | -120.06011 | 16752 ft | 336 kts | 307° |
| 2026-04-20 22:17 | 34.88600 | -120.08067 | 16241 ft | 311 kts | 302° |
| 2026-04-20 22:18 | 34.89897 | -120.10082 | 15664 ft | 294 kts | 300° |
| 2026-04-20 22:18 | 34.91151 | -120.12005 | 15173 ft | 284 kts | 301° |
| 2026-04-20 22:18 | 34.92367 | -120.13857 | 14652 ft | 275 kts | 300° |
| 2026-04-20 22:18 | 34.93528 | -120.15664 | 14138 ft | 269 kts | 300° |
| 2026-04-20 22:19 | 34.94672 | -120.17464 | 13533 ft | 268 kts | 300° |
| 2026-04-20 22:19 | 34.95826 | -120.19234 | 12901 ft | 265 kts | 301° |
| 2026-04-20 22:19 | 34.96964 | -120.20991 | 12267 ft | 263 kts | 301° |
| 2026-04-20 22:19 | 34.98089 | -120.22736 | 11658 ft | 260 kts | 302° |
| 2026-04-20 22:20 | 34.99185 | -120.24439 | 11069 ft | 257 kts | 302° |
| 2026-04-20 22:20 | 35.00284 | -120.26144 | 10423 ft | 256 kts | 303° |
| 2026-04-20 22:20 | 35.01384 | -120.27846 | 9750 ft | 255 kts | 303° |
| 2026-04-20 22:20 | 35.02479 | -120.29546 | 9076 ft | 254 kts | 303° |
| 2026-04-20 22:21 | 35.03569 | -120.31239 | 8408 ft | 253 kts | 304° |
| 2026-04-20 22:21 | 35.04649 | -120.32912 | 7859 ft | 246 kts | 304° |
| 2026-04-20 22:21 | 35.05678 | -120.34517 | 7404 ft | 234 kts | 304° |
| 2026-04-20 22:21 | 35.06678 | -120.36034 | 6939 ft | 226 kts | 307° |
| 2026-04-20 22:22 | 35.07638 | -120.37530 | 6455 ft | 223 kts | 300° |
| 2026-04-20 22:22 | 35.08571 | -120.39041 | 6068 ft | 223 kts | 303° |
| 2026-04-20 22:22 | 35.09530 | -120.40519 | 5667 ft | 221 kts | 304° |
| 2026-04-20 22:22 | 35.10481 | -120.41990 | 5269 ft | 219 kts | 304° |
| 2026-04-20 22:23 | 35.11425 | -120.43453 | 4875 ft | 219 kts | 304° |
| 2026-04-20 22:23 | 35.12345 | -120.44889 | 4578 ft | 216 kts | 304° |
| 2026-04-20 22:23 | 35.13274 | -120.46343 | 4253 ft | 213 kts | 304° |
| 2026-04-20 22:23 | 35.14176 | -120.47761 | 3888 ft | 208 kts | 304° |
| 2026-04-20 22:24 | 35.15064 | -120.49138 | 3547 ft | 205 kts | 306° |
| 2026-04-20 22:24 | 35.15928 | -120.50465 | 3232 ft | 198 kts | 304° |
| 2026-04-20 22:24 | 35.16713 | -120.51775 | 2960 ft | 185 kts | 301° |
| 2026-04-20 22:24 | 35.17433 | -120.53013 | 2694 ft | 174 kts | 299° |
| 2026-04-20 22:25 | 35.18087 | -120.54202 | 2492 ft | 163 kts | 299° |
| 2026-04-20 22:25 | 35.18715 | -120.55307 | 2251 ft | 154 kts | 300° |
| 2026-04-20 22:25 | 35.19320 | -120.56350 | 2009 ft | 147 kts | 298° |
| 2026-04-20 22:25 | 35.19892 | -120.57359 | 1766 ft | 142 kts | 299° |
| 2026-04-20 22:26 | 35.20458 | -120.58347 | 1592 ft | 143 kts | 301° |
| 2026-04-20 22:26 | 35.21055 | -120.59341 | 1442 ft | 146 kts | 298° |
| 2026-04-20 22:26 | 35.21608 | -120.60341 | 1217 ft | 138 kts | 296° |
| 2026-04-20 22:27 | 35.22687 | -120.62275 | 769 ft | 140 kts | 297° |
| 2026-04-20 22:27 | 35.23251 | -120.63293 | 484 ft | 148 kts | 298° |
| 2026-04-20 22:27 | 35.23851 | -120.64325 | 228 ft | 147 kts | 299° |
| 2026-04-20 22:27 | 35.24010 | -120.64602 | 176 ft | 0 kts | 299° |